sensor_id;sensor_type;location;lat;lon;timestamp;P1;durP1;ratioP1;P2;durP2;ratioP2
44774;SDS011;31340;51.402;0.016;2023-09-19T00:00:47;16.42;;;2.45;;
44774;SDS011;31340;51.402;0.016;2023-09-19T00:03:16;12.65;;;2.10;;
44774;SDS011;31340;51.402;0.016;2023-09-19T00:05:44;14.23;;;2.20;;
44774;SDS011;31340;51.402;0.016;2023-09-19T00:08:13;13.07;;;2.50;;
44774;SDS011;31340;51.402;0.016;2023-09-19T00:10:41;20.38;;;2.70;;
44774;SDS011;31340;51.402;0.016;2023-09-19T00:13:09;14.23;;;2.75;;
44774;SDS011;31340;51.402;0.016;2023-09-19T00:15:46;20.13;;;3.65;;
44774;SDS011;31340;51.402;0.016;2023-09-19T00:18:18;14.40;;;2.80;;
44774;SDS011;31340;51.402;0.016;2023-09-19T00:20:49;14.70;;;2.58;;
44774;SDS011;31340;51.402;0.016;2023-09-19T00:23:19;17.52;;;2.67;;
44774;SDS011;31340;51.402;0.016;2023-09-19T00:25:48;18.13;;;3.35;;
44774;SDS011;31340;51.402;0.016;2023-09-19T00:28:17;18.45;;;2.63;;
44774;SDS011;31340;51.402;0.016;2023-09-19T00:30:45;12.20;;;3.08;;
44774;SDS011;31340;51.402;0.016;2023-09-19T00:33:21;17.23;;;2.60;;
44774;SDS011;31340;51.402;0.016;2023-09-19T00:38:17;15.77;;;3.22;;
44774;SDS011;31340;51.402;0.016;2023-09-19T00:40:50;15.38;;;3.47;;
44774;SDS011;31340;51.402;0.016;2023-09-19T00:43:18;13.00;;;2.78;;
44774;SDS011;31340;51.402;0.016;2023-09-19T00:45:49;13.60;;;3.05;;
44774;SDS011;31340;51.402;0.016;2023-09-19T00:48:23;19.55;;;3.08;;
44774;SDS011;31340;51.402;0.016;2023-09-19T00:50:53;17.17;;;3.55;;
44774;SDS011;31340;51.402;0.016;2023-09-19T00:53:21;14.27;;;2.78;;
44774;SDS011;31340;51.402;0.016;2023-09-19T00:55:50;14.52;;;2.92;;
44774;SDS011;31340;51.402;0.016;2023-09-19T00:58:19;18.17;;;3.17;;
44774;SDS011;31340;51.402;0.016;2023-09-19T01:00:48;12.90;;;3.42;;
44774;SDS011;31340;51.402;0.016;2023-09-19T01:03:17;20.52;;;3.05;;
44774;SDS011;31340;51.402;0.016;2023-09-19T01:05:45;23.25;;;3.33;;
44774;SDS011;31340;51.402;0.016;2023-09-19T01:08:13;14.32;;;3.03;;
44774;SDS011;31340;51.402;0.016;2023-09-19T01:10:46;21.65;;;3.50;;
44774;SDS011;31340;51.402;0.016;2023-09-19T01:18:47;15.60;;;3.10;;
44774;SDS011;31340;51.402;0.016;2023-09-19T01:21:30;18.05;;;2.75;;
44774;SDS011;31340;51.402;0.016;2023-09-19T01:30:21;15.35;;;3.10;;
44774;SDS011;31340;51.402;0.016;2023-09-19T01:32:54;15.15;;;2.97;;
44774;SDS011;31340;51.402;0.016;2023-09-19T01:35:22;18.55;;;2.90;;
44774;SDS011;31340;51.402;0.016;2023-09-19T01:37:50;18.42;;;2.72;;
44774;SDS011;31340;51.402;0.016;2023-09-19T01:40:17;15.98;;;2.83;;
44774;SDS011;31340;51.402;0.016;2023-09-19T01:42:57;25.05;;;3.13;;
44774;SDS011;31340;51.402;0.016;2023-09-19T01:48:41;17.08;;;3.78;;
44774;SDS011;31340;51.402;0.016;2023-09-19T01:51:15;20.80;;;2.75;;
44774;SDS011;31340;51.402;0.016;2023-09-19T01:54:00;13.75;;;3.00;;
44774;SDS011;31340;51.402;0.016;2023-09-19T01:56:34;16.55;;;2.92;;
44774;SDS011;31340;51.402;0.016;2023-09-19T01:59:16;17.97;;;3.57;;
44774;SDS011;31340;51.402;0.016;2023-09-19T02:01:54;18.15;;;3.08;;
44774;SDS011;31340;51.402;0.016;2023-09-19T02:04:23;14.63;;;2.78;;
44774;SDS011;31340;51.402;0.016;2023-09-19T02:06:51;14.75;;;2.42;;
44774;SDS011;31340;51.402;0.016;2023-09-19T02:09:18;16.73;;;3.03;;
44774;SDS011;31340;51.402;0.016;2023-09-19T02:11:46;14.88;;;3.17;;
44774;SDS011;31340;51.402;0.016;2023-09-19T02:14:13;12.27;;;2.65;;
44774;SDS011;31340;51.402;0.016;2023-09-19T02:16:41;18.08;;;3.53;;
44774;SDS011;31340;51.402;0.016;2023-09-19T02:19:09;14.35;;;2.90;;
44774;SDS011;31340;51.402;0.016;2023-09-19T02:21:37;19.27;;;3.08;;
44774;SDS011;31340;51.402;0.016;2023-09-19T02:24:07;17.45;;;3.15;;
44774;SDS011;31340;51.402;0.016;2023-09-19T02:26:35;15.73;;;3.17;;
44774;SDS011;31340;51.402;0.016;2023-09-19T02:29:06;12.02;;;3.08;;
44774;SDS011;31340;51.402;0.016;2023-09-19T02:31:35;13.32;;;3.22;;
44774;SDS011;31340;51.402;0.016;2023-09-19T02:34:03;16.35;;;2.83;;
44774;SDS011;31340;51.402;0.016;2023-09-19T02:36:30;18.55;;;3.45;;
44774;SDS011;31340;51.402;0.016;2023-09-19T02:38:58;16.23;;;3.33;;
44774;SDS011;31340;51.402;0.016;2023-09-19T02:41:25;18.15;;;3.28;;
44774;SDS011;31340;51.402;0.016;2023-09-19T02:43:54;15.13;;;2.75;;
44774;SDS011;31340;51.402;0.016;2023-09-19T02:46:22;16.67;;;3.78;;
44774;SDS011;31340;51.402;0.016;2023-09-19T02:48:50;20.17;;;3.20;;
44774;SDS011;31340;51.402;0.016;2023-09-19T02:51:18;13.48;;;2.92;;
44774;SDS011;31340;51.402;0.016;2023-09-19T02:53:45;20.85;;;2.90;;
44774;SDS011;31340;51.402;0.016;2023-09-19T02:56:14;13.05;;;2.78;;
44774;SDS011;31340;51.402;0.016;2023-09-19T02:58:42;22.33;;;3.92;;
44774;SDS011;31340;51.402;0.016;2023-09-19T03:01:11;17.75;;;3.28;;
44774;SDS011;31340;51.402;0.016;2023-09-19T03:03:39;17.38;;;3.10;;
44774;SDS011;31340;51.402;0.016;2023-09-19T03:06:08;16.60;;;2.83;;
44774;SDS011;31340;51.402;0.016;2023-09-19T03:08:40;16.40;;;3.63;;
44774;SDS011;31340;51.402;0.016;2023-09-19T03:11:10;14.35;;;2.80;;
44774;SDS011;31340;51.402;0.016;2023-09-19T03:13:42;18.38;;;3.67;;
44774;SDS011;31340;51.402;0.016;2023-09-19T03:16:12;16.85;;;2.63;;
44774;SDS011;31340;51.402;0.016;2023-09-19T03:18:42;15.52;;;2.70;;
44774;SDS011;31340;51.402;0.016;2023-09-19T03:21:10;16.08;;;3.22;;
44774;SDS011;31340;51.402;0.016;2023-09-19T03:26:10;13.00;;;2.72;;
44774;SDS011;31340;51.402;0.016;2023-09-19T03:28:45;15.85;;;3.10;;
44774;SDS011;31340;51.402;0.016;2023-09-19T03:31:13;22.70;;;4.28;;
44774;SDS011;31340;51.402;0.016;2023-09-19T03:33:41;18.05;;;2.95;;
44774;SDS011;31340;51.402;0.016;2023-09-19T03:36:08;15.93;;;2.95;;
44774;SDS011;31340;51.402;0.016;2023-09-19T03:38:36;14.50;;;2.85;;
44774;SDS011;31340;51.402;0.016;2023-09-19T03:41:04;18.05;;;3.13;;
44774;SDS011;31340;51.402;0.016;2023-09-19T03:43:34;24.08;;;2.95;;
44774;SDS011;31340;51.402;0.016;2023-09-19T03:46:03;18.33;;;3.30;;
44774;SDS011;31340;51.402;0.016;2023-09-19T03:48:33;17.80;;;3.80;;
44774;SDS011;31340;51.402;0.016;2023-09-19T03:51:02;17.42;;;3.05;;
44774;SDS011;31340;51.402;0.016;2023-09-19T03:53:29;25.60;;;4.38;;
44774;SDS011;31340;51.402;0.016;2023-09-19T03:55:57;18.98;;;2.85;;
44774;SDS011;31340;51.402;0.016;2023-09-19T04:00:56;20.70;;;3.05;;
44774;SDS011;31340;51.402;0.016;2023-09-19T04:03:26;15.50;;;3.35;;
44774;SDS011;31340;51.402;0.016;2023-09-19T04:06:02;18.50;;;3.75;;
44774;SDS011;31340;51.402;0.016;2023-09-19T04:08:30;21.23;;;3.10;;
44774;SDS011;31340;51.402;0.016;2023-09-19T04:10:57;15.95;;;3.20;;
44774;SDS011;31340;51.402;0.016;2023-09-19T04:13:25;17.65;;;3.53;;
44774;SDS011;31340;51.402;0.016;2023-09-19T04:15:53;23.00;;;2.90;;
44774;SDS011;31340;51.402;0.016;2023-09-19T04:18:20;14.45;;;2.97;;
44774;SDS011;31340;51.402;0.016;2023-09-19T04:20:50;18.40;;;2.50;;
44774;SDS011;31340;51.402;0.016;2023-09-19T04:23:18;21.50;;;3.47;;
44774;SDS011;31340;51.402;0.016;2023-09-19T04:25:49;19.50;;;2.80;;
44774;SDS011;31340;51.402;0.016;2023-09-19T04:28:17;17.17;;;2.80;;
44774;SDS011;31340;51.402;0.016;2023-09-19T04:30:45;16.58;;;3.00;;
44774;SDS011;31340;51.402;0.016;2023-09-19T04:33:13;22.27;;;3.60;;
44774;SDS011;31340;51.402;0.016;2023-09-19T04:35:43;16.43;;;3.07;;
44774;SDS011;31340;51.402;0.016;2023-09-19T04:38:10;19.05;;;3.30;;
44774;SDS011;31340;51.402;0.016;2023-09-19T04:40:38;22.23;;;3.80;;
44774;SDS011;31340;51.402;0.016;2023-09-19T04:43:06;17.42;;;2.78;;
44774;SDS011;31340;51.402;0.016;2023-09-19T04:45:34;19.92;;;3.35;;
44774;SDS011;31340;51.402;0.016;2023-09-19T04:48:02;13.20;;;2.92;;
44774;SDS011;31340;51.402;0.016;2023-09-19T04:50:30;17.33;;;3.30;;
44774;SDS011;31340;51.402;0.016;2023-09-19T04:52:58;15.70;;;2.90;;
44774;SDS011;31340;51.402;0.016;2023-09-19T04:55:26;17.85;;;3.35;;
44774;SDS011;31340;51.402;0.016;2023-09-19T04:57:54;20.00;;;3.88;;
44774;SDS011;31340;51.402;0.016;2023-09-19T05:00:22;16.52;;;3.20;;
44774;SDS011;31340;51.402;0.016;2023-09-19T05:02:56;14.60;;;3.42;;
44774;SDS011;31340;51.402;0.016;2023-09-19T05:05:25;21.45;;;3.58;;
44774;SDS011;31340;51.402;0.016;2023-09-19T05:07:53;26.67;;;4.10;;
44774;SDS011;31340;51.402;0.016;2023-09-19T05:10:21;17.45;;;3.13;;
44774;SDS011;31340;51.402;0.016;2023-09-19T05:12:49;18.83;;;2.95;;
44774;SDS011;31340;51.402;0.016;2023-09-19T05:15:20;20.73;;;3.47;;
44774;SDS011;31340;51.402;0.016;2023-09-19T05:17:48;15.27;;;3.17;;
44774;SDS011;31340;51.402;0.016;2023-09-19T05:20:23;19.10;;;4.15;;
44774;SDS011;31340;51.402;0.016;2023-09-19T05:23:07;23.90;;;3.30;;
44774;SDS011;31340;51.402;0.016;2023-09-19T05:25:37;17.70;;;3.05;;
44774;SDS011;31340;51.402;0.016;2023-09-19T05:28:06;18.73;;;3.50;;
44774;SDS011;31340;51.402;0.016;2023-09-19T05:30:35;21.48;;;3.60;;
44774;SDS011;31340;51.402;0.016;2023-09-19T05:33:03;21.08;;;4.25;;
44774;SDS011;31340;51.402;0.016;2023-09-19T05:35:32;18.48;;;3.53;;
44774;SDS011;31340;51.402;0.016;2023-09-19T05:38:00;20.52;;;3.35;;
44774;SDS011;31340;51.402;0.016;2023-09-19T05:40:28;21.45;;;3.15;;
44774;SDS011;31340;51.402;0.016;2023-09-19T05:42:55;19.50;;;3.33;;
44774;SDS011;31340;51.402;0.016;2023-09-19T05:45:23;14.07;;;3.03;;
44774;SDS011;31340;51.402;0.016;2023-09-19T05:47:51;23.77;;;4.32;;
44774;SDS011;31340;51.402;0.016;2023-09-19T05:50:23;18.60;;;3.63;;
44774;SDS011;31340;51.402;0.016;2023-09-19T05:52:52;18.35;;;3.33;;
44774;SDS011;31340;51.402;0.016;2023-09-19T05:55:20;17.70;;;2.80;;
44774;SDS011;31340;51.402;0.016;2023-09-19T05:57:51;17.20;;;3.30;;
44774;SDS011;31340;51.402;0.016;2023-09-19T06:00:20;16.25;;;2.53;;
44774;SDS011;31340;51.402;0.016;2023-09-19T06:02:51;25.00;;;3.58;;
44774;SDS011;31340;51.402;0.016;2023-09-19T06:05:20;15.68;;;2.70;;
44774;SDS011;31340;51.402;0.016;2023-09-19T06:07:48;18.60;;;2.97;;
44774;SDS011;31340;51.402;0.016;2023-09-19T06:10:16;17.50;;;2.97;;
44774;SDS011;31340;51.402;0.016;2023-09-19T06:12:44;12.52;;;2.10;;
44774;SDS011;31340;51.402;0.016;2023-09-19T06:15:13;15.13;;;3.00;;
44774;SDS011;31340;51.402;0.016;2023-09-19T06:17:46;15.82;;;2.72;;
44774;SDS011;31340;51.402;0.016;2023-09-19T06:20:15;17.55;;;2.30;;
44774;SDS011;31340;51.402;0.016;2023-09-19T06:22:44;10.43;;;1.98;;
44774;SDS011;31340;51.402;0.016;2023-09-19T06:25:13;12.98;;;2.25;;
44774;SDS011;31340;51.402;0.016;2023-09-19T06:27:48;8.35;;;2.00;;
44774;SDS011;31340;51.402;0.016;2023-09-19T06:30:20;6.72;;;1.80;;
44774;SDS011;31340;51.402;0.016;2023-09-19T06:32:55;7.68;;;1.83;;
44774;SDS011;31340;51.402;0.016;2023-09-19T06:35:23;7.82;;;2.08;;
44774;SDS011;31340;51.402;0.016;2023-09-19T06:37:53;10.98;;;1.60;;
44774;SDS011;31340;51.402;0.016;2023-09-19T06:40:21;8.25;;;1.75;;
44774;SDS011;31340;51.402;0.016;2023-09-19T06:42:51;11.43;;;2.00;;
44774;SDS011;31340;51.402;0.016;2023-09-19T06:45:21;16.75;;;2.42;;
44774;SDS011;31340;51.402;0.016;2023-09-19T06:47:50;9.88;;;1.92;;
44774;SDS011;31340;51.402;0.016;2023-09-19T06:50:21;13.68;;;2.45;;
44774;SDS011;31340;51.402;0.016;2023-09-19T06:52:51;15.65;;;2.38;;
44774;SDS011;31340;51.402;0.016;2023-09-19T06:55:21;14.00;;;2.10;;
44774;SDS011;31340;51.402;0.016;2023-09-19T06:57:52;11.98;;;2.13;;
44774;SDS011;31340;51.402;0.016;2023-09-19T07:00:21;10.75;;;1.95;;
44774;SDS011;31340;51.402;0.016;2023-09-19T07:02:59;16.60;;;2.70;;
44774;SDS011;31340;51.402;0.016;2023-09-19T07:05:29;12.93;;;2.63;;
44774;SDS011;31340;51.402;0.016;2023-09-19T07:08:01;10.75;;;1.67;;
44774;SDS011;31340;51.402;0.016;2023-09-19T07:10:29;8.15;;;1.77;;
44774;SDS011;31340;51.402;0.016;2023-09-19T07:12:58;17.35;;;2.50;;
44774;SDS011;31340;51.402;0.016;2023-09-19T07:15:27;10.60;;;1.95;;
44774;SDS011;31340;51.402;0.016;2023-09-19T07:17:55;14.73;;;2.22;;
44774;SDS011;31340;51.402;0.016;2023-09-19T07:20:24;11.10;;;2.20;;
44774;SDS011;31340;51.402;0.016;2023-09-19T07:22:58;12.55;;;2.78;;
44774;SDS011;31340;51.402;0.016;2023-09-19T07:25:27;10.07;;;1.83;;
44774;SDS011;31340;51.402;0.016;2023-09-19T07:27:55;10.27;;;2.10;;
44774;SDS011;31340;51.402;0.016;2023-09-19T07:30:26;13.18;;;2.80;;
44774;SDS011;31340;51.402;0.016;2023-09-19T07:32:54;10.15;;;1.98;;
44774;SDS011;31340;51.402;0.016;2023-09-19T07:35:22;7.95;;;1.90;;
44774;SDS011;31340;51.402;0.016;2023-09-19T07:37:50;6.95;;;1.95;;
44774;SDS011;31340;51.402;0.016;2023-09-19T07:40:19;13.13;;;2.60;;
44774;SDS011;31340;51.402;0.016;2023-09-19T07:42:50;8.23;;;2.00;;
44774;SDS011;31340;51.402;0.016;2023-09-19T07:45:18;12.13;;;2.22;;
44774;SDS011;31340;51.402;0.016;2023-09-19T07:47:51;11.10;;;2.30;;
44774;SDS011;31340;51.402;0.016;2023-09-19T07:50:19;19.83;;;2.75;;
44774;SDS011;31340;51.402;0.016;2023-09-19T07:52:47;13.45;;;2.42;;
44774;SDS011;31340;51.402;0.016;2023-09-19T07:55:20;14.15;;;2.60;;
44774;SDS011;31340;51.402;0.016;2023-09-19T07:57:54;16.08;;;2.47;;
44774;SDS011;31340;51.402;0.016;2023-09-19T08:00:24;10.02;;;2.20;;
44774;SDS011;31340;51.402;0.016;2023-09-19T08:02:52;18.83;;;3.13;;
44774;SDS011;31340;51.402;0.016;2023-09-19T08:05:30;11.27;;;2.30;;
44774;SDS011;31340;51.402;0.016;2023-09-19T08:07:57;15.93;;;3.50;;
44774;SDS011;31340;51.402;0.016;2023-09-19T08:10:26;17.02;;;3.60;;
44774;SDS011;31340;51.402;0.016;2023-09-19T08:12:55;20.45;;;3.42;;
44774;SDS011;31340;51.402;0.016;2023-09-19T08:15:25;28.67;;;3.88;;
44774;SDS011;31340;51.402;0.016;2023-09-19T08:17:53;17.80;;;3.67;;
44774;SDS011;31340;51.402;0.016;2023-09-19T08:20:20;18.58;;;3.60;;
44774;SDS011;31340;51.402;0.016;2023-09-19T08:25:20;20.80;;;3.88;;
44774;SDS011;31340;51.402;0.016;2023-09-19T08:27:54;20.83;;;3.88;;
44774;SDS011;31340;51.402;0.016;2023-09-19T08:30:27;21.63;;;4.07;;
44774;SDS011;31340;51.402;0.016;2023-09-19T08:32:57;22.52;;;5.53;;
44774;SDS011;31340;51.402;0.016;2023-09-19T08:35:29;26.13;;;3.83;;
44774;SDS011;31340;51.402;0.016;2023-09-19T08:37:56;17.73;;;3.88;;
44774;SDS011;31340;51.402;0.016;2023-09-19T08:40:24;19.30;;;3.75;;
44774;SDS011;31340;51.402;0.016;2023-09-19T08:42:54;22.08;;;3.83;;
44774;SDS011;31340;51.402;0.016;2023-09-19T08:45:23;26.10;;;5.13;;
44774;SDS011;31340;51.402;0.016;2023-09-19T08:50:32;23.67;;;4.60;;
44774;SDS011;31340;51.402;0.016;2023-09-19T08:53:09;19.73;;;3.75;;
44774;SDS011;31340;51.402;0.016;2023-09-19T08:55:39;17.73;;;3.85;;
44774;SDS011;31340;51.402;0.016;2023-09-19T08:58:10;27.00;;;5.18;;
44774;SDS011;31340;51.402;0.016;2023-09-19T09:00:40;23.52;;;4.82;;
44774;SDS011;31340;51.402;0.016;2023-09-19T09:03:10;25.38;;;5.07;;
44774;SDS011;31340;51.402;0.016;2023-09-19T09:05:41;29.88;;;5.78;;
44774;SDS011;31340;51.402;0.016;2023-09-19T09:08:13;27.00;;;5.78;;
44774;SDS011;31340;51.402;0.016;2023-09-19T09:10:43;26.80;;;5.80;;
44774;SDS011;31340;51.402;0.016;2023-09-19T09:13:11;24.95;;;4.47;;
44774;SDS011;31340;51.402;0.016;2023-09-19T09:15:41;25.50;;;6.13;;
44774;SDS011;31340;51.402;0.016;2023-09-19T09:18:11;21.38;;;4.55;;
44774;SDS011;31340;51.402;0.016;2023-09-19T09:20:40;26.48;;;5.55;;
44774;SDS011;31340;51.402;0.016;2023-09-19T09:23:08;22.27;;;5.00;;
44774;SDS011;31340;51.402;0.016;2023-09-19T09:25:47;27.05;;;5.32;;
44774;SDS011;31340;51.402;0.016;2023-09-19T09:28:24;23.25;;;4.78;;
44774;SDS011;31340;51.402;0.016;2023-09-19T09:30:56;26.02;;;5.10;;
44774;SDS011;31340;51.402;0.016;2023-09-19T09:33:25;28.02;;;5.05;;
44774;SDS011;31340;51.402;0.016;2023-09-19T09:35:54;24.52;;;5.63;;
44774;SDS011;31340;51.402;0.016;2023-09-19T09:38:28;25.20;;;5.55;;
44774;SDS011;31340;51.402;0.016;2023-09-19T09:41:10;23.92;;;5.30;;
44774;SDS011;31340;51.402;0.016;2023-09-19T09:43:42;29.08;;;5.43;;
44774;SDS011;31340;51.402;0.016;2023-09-19T09:46:16;24.45;;;5.35;;
44774;SDS011;31340;51.402;0.016;2023-09-19T09:51:59;22.52;;;5.10;;
44774;SDS011;31340;51.402;0.016;2023-09-19T09:54:28;22.13;;;5.13;;
44774;SDS011;31340;51.402;0.016;2023-09-19T09:57:06;27.00;;;6.10;;
44774;SDS011;31340;51.402;0.016;2023-09-19T10:02:26;26.50;;;5.13;;
44774;SDS011;31340;51.402;0.016;2023-09-19T10:05:03;17.90;;;4.78;;
44774;SDS011;31340;51.402;0.016;2023-09-19T10:07:48;27.27;;;5.18;;
44774;SDS011;31340;51.402;0.016;2023-09-19T10:10:36;23.77;;;5.38;;
44774;SDS011;31340;51.402;0.016;2023-09-19T10:13:09;29.38;;;5.93;;
44774;SDS011;31340;51.402;0.016;2023-09-19T10:15:43;26.52;;;5.65;;
44774;SDS011;31340;51.402;0.016;2023-09-19T10:18:25;22.08;;;5.72;;
44774;SDS011;31340;51.402;0.016;2023-09-19T10:20:56;24.38;;;6.05;;
44774;SDS011;31340;51.402;0.016;2023-09-19T10:23:24;33.38;;;7.68;;
44774;SDS011;31340;51.402;0.016;2023-09-19T10:25:56;30.33;;;6.18;;
44774;SDS011;31340;51.402;0.016;2023-09-19T10:28:25;30.02;;;6.28;;
44774;SDS011;31340;51.402;0.016;2023-09-19T10:30:56;33.58;;;5.70;;
44774;SDS011;31340;51.402;0.016;2023-09-19T10:33:25;34.13;;;5.78;;
44774;SDS011;31340;51.402;0.016;2023-09-19T10:35:58;29.45;;;6.20;;
44774;SDS011;31340;51.402;0.016;2023-09-19T10:38:27;26.02;;;5.35;;
44774;SDS011;31340;51.402;0.016;2023-09-19T10:40:56;28.25;;;6.40;;
44774;SDS011;31340;51.402;0.016;2023-09-19T10:43:32;31.20;;;6.78;;
44774;SDS011;31340;51.402;0.016;2023-09-19T10:46:08;31.98;;;6.28;;
44774;SDS011;31340;51.402;0.016;2023-09-19T10:48:40;26.60;;;6.32;;
44774;SDS011;31340;51.402;0.016;2023-09-19T10:51:11;26.67;;;6.05;;
44774;SDS011;31340;51.402;0.016;2023-09-19T10:53:44;30.25;;;6.55;;
44774;SDS011;31340;51.402;0.016;2023-09-19T10:56:29;23.92;;;5.63;;
44774;SDS011;31340;51.402;0.016;2023-09-19T10:59:06;21.23;;;5.75;;
44774;SDS011;31340;51.402;0.016;2023-09-19T11:04:32;31.50;;;6.63;;
44774;SDS011;31340;51.402;0.016;2023-09-19T11:07:06;28.27;;;5.78;;
44774;SDS011;31340;51.402;0.016;2023-09-19T11:09:54;28.92;;;6.07;;
44774;SDS011;31340;51.402;0.016;2023-09-19T11:14:58;22.40;;;4.80;;
44774;SDS011;31340;51.402;0.016;2023-09-19T11:17:29;24.38;;;5.72;;
44774;SDS011;31340;51.402;0.016;2023-09-19T11:30:39;22.27;;;5.13;;
44774;SDS011;31340;51.402;0.016;2023-09-19T11:33:17;27.42;;;5.97;;
44774;SDS011;31340;51.402;0.016;2023-09-19T11:43:48;17.80;;;4.53;;
44774;SDS011;31340;51.402;0.016;2023-09-19T11:46:26;25.15;;;5.70;;
44774;SDS011;31340;51.402;0.016;2023-09-19T11:48:55;27.02;;;6.40;;
44774;SDS011;31340;51.402;0.016;2023-09-19T11:51:37;22.73;;;5.30;;
44774;SDS011;31340;51.402;0.016;2023-09-19T11:54:10;21.27;;;5.03;;
44774;SDS011;31340;51.402;0.016;2023-09-19T11:56:46;18.05;;;5.10;;
44774;SDS011;31340;51.402;0.016;2023-09-19T11:59:20;26.27;;;5.13;;
44774;SDS011;31340;51.402;0.016;2023-09-19T12:01:56;19.30;;;4.78;;
44774;SDS011;31340;51.402;0.016;2023-09-19T12:04:35;21.75;;;5.68;;
44774;SDS011;31340;51.402;0.016;2023-09-19T12:07:06;22.65;;;5.45;;
44774;SDS011;31340;51.402;0.016;2023-09-19T12:09:39;22.17;;;5.35;;
44774;SDS011;31340;51.402;0.016;2023-09-19T12:12:11;24.48;;;5.55;;
44774;SDS011;31340;51.402;0.016;2023-09-19T12:14:54;23.65;;;5.25;;
44774;SDS011;31340;51.402;0.016;2023-09-19T12:17:36;19.27;;;4.95;;
44774;SDS011;31340;51.402;0.016;2023-09-19T12:20:06;16.48;;;4.50;;
44774;SDS011;31340;51.402;0.016;2023-09-19T12:22:43;21.83;;;4.93;;
44774;SDS011;31340;51.402;0.016;2023-09-19T12:25:13;19.73;;;4.65;;
44774;SDS011;31340;51.402;0.016;2023-09-19T12:27:44;22.05;;;5.00;;
44774;SDS011;31340;51.402;0.016;2023-09-19T12:30:15;16.73;;;4.30;;
44774;SDS011;31340;51.402;0.016;2023-09-19T12:32:54;16.70;;;4.40;;
44774;SDS011;31340;51.402;0.016;2023-09-19T12:35:32;16.00;;;4.38;;
44774;SDS011;31340;51.402;0.016;2023-09-19T12:38:03;11.63;;;4.05;;
44774;SDS011;31340;51.402;0.016;2023-09-19T12:40:31;16.75;;;4.60;;
44774;SDS011;31340;51.402;0.016;2023-09-19T12:43:01;11.65;;;4.05;;
44774;SDS011;31340;51.402;0.016;2023-09-19T12:45:32;15.70;;;3.72;;
44774;SDS011;31340;51.402;0.016;2023-09-19T12:48:21;14.60;;;4.05;;
44774;SDS011;31340;51.402;0.016;2023-09-19T12:51:10;10.80;;;3.88;;
44774;SDS011;31340;51.402;0.016;2023-09-19T12:53:40;15.13;;;3.65;;
44774;SDS011;31340;51.402;0.016;2023-09-19T12:56:15;15.32;;;3.88;;
44774;SDS011;31340;51.402;0.016;2023-09-19T13:01:22;18.33;;;4.47;;
44774;SDS011;31340;51.402;0.016;2023-09-19T13:06:48;17.95;;;3.97;;
44774;SDS011;31340;51.402;0.016;2023-09-19T13:09:17;17.52;;;5.32;;
44774;SDS011;31340;51.402;0.016;2023-09-19T13:25:18;24.08;;;5.03;;
44774;SDS011;31340;51.402;0.016;2023-09-19T13:27:50;15.15;;;4.45;;
44774;SDS011;31340;51.402;0.016;2023-09-19T13:30:24;19.33;;;4.47;;
44774;SDS011;31340;51.402;0.016;2023-09-19T13:33:08;20.65;;;4.43;;
44774;SDS011;31340;51.402;0.016;2023-09-19T13:35:38;13.50;;;4.68;;
44774;SDS011;31340;51.402;0.016;2023-09-19T13:38:08;17.88;;;4.60;;
44774;SDS011;31340;51.402;0.016;2023-09-19T13:40:39;16.50;;;4.85;;
44774;SDS011;31340;51.402;0.016;2023-09-19T13:43:09;16.90;;;4.35;;
44774;SDS011;31340;51.402;0.016;2023-09-19T13:45:38;18.75;;;4.25;;
44774;SDS011;31340;51.402;0.016;2023-09-19T13:48:09;15.18;;;4.03;;
44774;SDS011;31340;51.402;0.016;2023-09-19T13:50:38;17.02;;;3.80;;
44774;SDS011;31340;51.402;0.016;2023-09-19T13:53:09;13.10;;;3.70;;
44774;SDS011;31340;51.402;0.016;2023-09-19T13:55:37;13.85;;;3.45;;
44774;SDS011;31340;51.402;0.016;2023-09-19T13:58:05;14.23;;;3.72;;
44774;SDS011;31340;51.402;0.016;2023-09-19T14:00:33;19.63;;;4.15;;
44774;SDS011;31340;51.402;0.016;2023-09-19T14:03:01;16.73;;;4.10;;
44774;SDS011;31340;51.402;0.016;2023-09-19T14:05:29;16.42;;;3.65;;
44774;SDS011;31340;51.402;0.016;2023-09-19T14:07:57;12.80;;;3.42;;
44774;SDS011;31340;51.402;0.016;2023-09-19T14:10:30;10.27;;;3.40;;
44774;SDS011;31340;51.402;0.016;2023-09-19T14:12:58;13.05;;;3.65;;
44774;SDS011;31340;51.402;0.016;2023-09-19T14:15:27;13.32;;;2.97;;
44774;SDS011;31340;51.402;0.016;2023-09-19T14:20:26;14.05;;;3.50;;
44774;SDS011;31340;51.402;0.016;2023-09-19T14:22:54;10.25;;;3.13;;
44774;SDS011;31340;51.402;0.016;2023-09-19T14:25:22;11.98;;;2.92;;
44774;SDS011;31340;51.402;0.016;2023-09-19T14:27:50;9.50;;;2.67;;
44774;SDS011;31340;51.402;0.016;2023-09-19T14:30:19;8.77;;;2.38;;
44774;SDS011;31340;51.402;0.016;2023-09-19T14:32:48;8.82;;;2.78;;
44774;SDS011;31340;51.402;0.016;2023-09-19T14:35:17;9.15;;;3.00;;
44774;SDS011;31340;51.402;0.016;2023-09-19T14:37:45;12.68;;;2.80;;
44774;SDS011;31340;51.402;0.016;2023-09-19T14:40:12;20.77;;;3.22;;
44774;SDS011;31340;51.402;0.016;2023-09-19T14:42:43;9.80;;;2.72;;
44774;SDS011;31340;51.402;0.016;2023-09-19T14:45:12;16.23;;;3.57;;
44774;SDS011;31340;51.402;0.016;2023-09-19T14:50:12;14.70;;;3.50;;
44774;SDS011;31340;51.402;0.016;2023-09-19T14:52:40;11.50;;;3.35;;
44774;SDS011;31340;51.402;0.016;2023-09-19T14:55:08;14.07;;;3.25;;
44774;SDS011;31340;51.402;0.016;2023-09-19T14:57:38;17.47;;;3.70;;
44774;SDS011;31340;51.402;0.016;2023-09-19T15:00:07;15.68;;;3.75;;
44774;SDS011;31340;51.402;0.016;2023-09-19T15:02:39;15.18;;;3.60;;
44774;SDS011;31340;51.402;0.016;2023-09-19T15:05:13;12.57;;;3.20;;
44774;SDS011;31340;51.402;0.016;2023-09-19T15:07:46;15.20;;;3.17;;
44774;SDS011;31340;51.402;0.016;2023-09-19T15:10:14;13.77;;;3.38;;
44774;SDS011;31340;51.402;0.016;2023-09-19T15:12:42;13.88;;;3.95;;
44774;SDS011;31340;51.402;0.016;2023-09-19T15:15:10;11.48;;;2.97;;
44774;SDS011;31340;51.402;0.016;2023-09-19T15:17:37;14.20;;;3.08;;
44774;SDS011;31340;51.402;0.016;2023-09-19T15:20:05;15.23;;;3.30;;
44774;SDS011;31340;51.402;0.016;2023-09-19T15:22:34;14.55;;;3.10;;
44774;SDS011;31340;51.402;0.016;2023-09-19T15:25:02;15.80;;;3.72;;
44774;SDS011;31340;51.402;0.016;2023-09-19T15:27:31;16.17;;;3.90;;
44774;SDS011;31340;51.402;0.016;2023-09-19T15:29:59;17.58;;;3.55;;
44774;SDS011;31340;51.402;0.016;2023-09-19T15:32:29;12.57;;;3.33;;
44774;SDS011;31340;51.402;0.016;2023-09-19T15:34:58;16.70;;;3.55;;
44774;SDS011;31340;51.402;0.016;2023-09-19T15:37:25;14.77;;;3.22;;
44774;SDS011;31340;51.402;0.016;2023-09-19T15:39:53;16.67;;;2.95;;
44774;SDS011;31340;51.402;0.016;2023-09-19T15:42:20;12.05;;;3.85;;
44774;SDS011;31340;51.402;0.016;2023-09-19T15:44:49;14.27;;;3.63;;
44774;SDS011;31340;51.402;0.016;2023-09-19T15:47:18;13.57;;;3.08;;
44774;SDS011;31340;51.402;0.016;2023-09-19T15:49:47;14.40;;;3.58;;
44774;SDS011;31340;51.402;0.016;2023-09-19T15:52:17;12.68;;;3.25;;
44774;SDS011;31340;51.402;0.016;2023-09-19T15:54:45;13.88;;;3.30;;
44774;SDS011;31340;51.402;0.016;2023-09-19T15:57:12;15.70;;;3.20;;
44774;SDS011;31340;51.402;0.016;2023-09-19T15:59:41;15.68;;;4.57;;
44774;SDS011;31340;51.402;0.016;2023-09-19T16:02:08;14.52;;;4.25;;
44774;SDS011;31340;51.402;0.016;2023-09-19T16:04:36;12.38;;;3.70;;
44774;SDS011;31340;51.402;0.016;2023-09-19T16:07:05;14.52;;;3.63;;
44774;SDS011;31340;51.402;0.016;2023-09-19T16:09:33;12.27;;;3.40;;
44774;SDS011;31340;51.402;0.016;2023-09-19T16:12:02;16.08;;;4.28;;
44774;SDS011;31340;51.402;0.016;2023-09-19T16:14:30;17.15;;;4.28;;
44774;SDS011;31340;51.402;0.016;2023-09-19T16:16:58;20.25;;;4.32;;